sensor_id;sensor_type;location;lat;lon;timestamp;P1;durP1;ratioP1;P2;durP2;ratioP2
209;SDS011;90;48.810;9.120;2023-05-10T00:01:31;3.00;;;2.40;;
209;SDS011;90;48.810;9.120;2023-05-10T00:03:59;3.23;;;2.27;;
209;SDS011;90;48.810;9.120;2023-05-10T00:06:25;2.23;;;1.83;;
209;SDS011;90;48.810;9.120;2023-05-10T00:08:52;4.83;;;1.73;;
209;SDS011;90;48.810;9.120;2023-05-10T00:11:19;7.80;;;1.70;;
209;SDS011;90;48.810;9.120;2023-05-10T00:13:47;2.00;;;1.30;;
209;SDS011;90;48.810;9.120;2023-05-10T00:16:14;1.73;;;1.40;;
209;SDS011;90;48.810;9.120;2023-05-10T00:18:41;2.77;;;1.63;;
209;SDS011;90;48.810;9.120;2023-05-10T00:21:07;2.47;;;1.20;;
209;SDS011;90;48.810;9.120;2023-05-10T00:23:34;1.70;;;1.10;;
209;SDS011;90;48.810;9.120;2023-05-10T00:26:01;1.90;;;1.10;;
209;SDS011;90;48.810;9.120;2023-05-10T00:28:28;2.30;;;1.20;;
209;SDS011;90;48.810;9.120;2023-05-10T00:30:56;2.10;;;1.10;;
209;SDS011;90;48.810;9.120;2023-05-10T00:33:23;1.70;;;1.40;;
209;SDS011;90;48.810;9.120;2023-05-10T00:35:49;1.90;;;1.50;;
209;SDS011;90;48.810;9.120;2023-05-10T00:38:16;2.13;;;1.20;;
209;SDS011;90;48.810;9.120;2023-05-10T00:40:43;1.90;;;1.23;;
209;SDS011;90;48.810;9.120;2023-05-10T00:43:10;13.33;;;1.50;;
209;SDS011;90;48.810;9.120;2023-05-10T00:45:36;1.70;;;1.20;;
209;SDS011;90;48.810;9.120;2023-05-10T00:48:06;1.70;;;1.10;;
209;SDS011;90;48.810;9.120;2023-05-10T00:50:33;3.97;;;1.30;;
209;SDS011;90;48.810;9.120;2023-05-10T00:53:00;2.10;;;1.40;;
209;SDS011;90;48.810;9.120;2023-05-10T00:55:28;1.67;;;1.10;;
209;SDS011;90;48.810;9.120;2023-05-10T00:57:55;1.90;;;1.30;;
209;SDS011;90;48.810;9.120;2023-05-10T01:00:22;1.80;;;1.10;;
209;SDS011;90;48.810;9.120;2023-05-10T01:02:49;1.90;;;1.07;;
209;SDS011;90;48.810;9.120;2023-05-10T01:05:17;2.33;;;1.30;;
209;SDS011;90;48.810;9.120;2023-05-10T01:07:43;2.17;;;1.20;;
209;SDS011;90;48.810;9.120;2023-05-10T01:10:10;2.30;;;1.20;;
209;SDS011;90;48.810;9.120;2023-05-10T01:12:38;4.13;;;1.40;;
209;SDS011;90;48.810;9.120;2023-05-10T01:15:07;2.33;;;1.10;;
209;SDS011;90;48.810;9.120;2023-05-10T01:17:36;2.13;;;1.30;;
209;SDS011;90;48.810;9.120;2023-05-10T01:20:05;1.80;;;1.70;;
209;SDS011;90;48.810;9.120;2023-05-10T01:22:50;4.33;;;1.30;;
209;SDS011;90;48.810;9.120;2023-05-10T01:28:45;1.80;;;1.70;;
209;SDS011;90;48.810;9.120;2023-05-10T01:31:34;2.67;;;1.60;;
209;SDS011;90;48.810;9.120;2023-05-10T01:34:27;1.77;;;1.50;;
209;SDS011;90;48.810;9.120;2023-05-10T01:37:02;1.87;;;1.37;;
209;SDS011;90;48.810;9.120;2023-05-10T01:39:36;2.00;;;1.50;;
209;SDS011;90;48.810;9.120;2023-05-10T01:42:09;3.80;;;1.60;;
209;SDS011;90;48.810;9.120;2023-05-10T01:44:37;2.40;;;1.57;;
209;SDS011;90;48.810;9.120;2023-05-10T01:47:10;1.70;;;1.50;;
209;SDS011;90;48.810;9.120;2023-05-10T01:49:43;1.80;;;1.60;;
209;SDS011;90;48.810;9.120;2023-05-10T01:52:15;1.80;;;1.60;;
209;SDS011;90;48.810;9.120;2023-05-10T01:54:48;3.23;;;1.80;;
209;SDS011;90;48.810;9.120;2023-05-10T01:57:19;3.57;;;2.00;;
209;SDS011;90;48.810;9.120;2023-05-10T01:59:49;2.00;;;1.90;;
209;SDS011;90;48.810;9.120;2023-05-10T02:02:18;2.00;;;1.90;;
209;SDS011;90;48.810;9.120;2023-05-10T02:04:47;2.97;;;1.83;;
209;SDS011;90;48.810;9.120;2023-05-10T02:07:16;4.47;;;1.63;;
209;SDS011;90;48.810;9.120;2023-05-10T02:09:44;1.87;;;1.70;;
209;SDS011;90;48.810;9.120;2023-05-10T02:12:13;2.23;;;2.03;;
209;SDS011;90;48.810;9.120;2023-05-10T02:14:41;4.00;;;1.70;;
209;SDS011;90;48.810;9.120;2023-05-10T02:17:09;5.50;;;1.90;;
209;SDS011;90;48.810;9.120;2023-05-10T02:19:39;1.90;;;1.70;;
209;SDS011;90;48.810;9.120;2023-05-10T02:22:07;1.90;;;1.50;;
209;SDS011;90;48.810;9.120;2023-05-10T02:24:36;1.80;;;1.60;;
209;SDS011;90;48.810;9.120;2023-05-10T02:27:04;2.20;;;2.00;;
209;SDS011;90;48.810;9.120;2023-05-10T02:29:33;3.70;;;2.00;;
209;SDS011;90;48.810;9.120;2023-05-10T02:32:02;1.90;;;1.87;;
209;SDS011;90;48.810;9.120;2023-05-10T02:34:29;2.07;;;1.87;;
209;SDS011;90;48.810;9.120;2023-05-10T02:36:58;2.40;;;2.20;;
209;SDS011;90;48.810;9.120;2023-05-10T02:39:26;1.93;;;1.87;;
209;SDS011;90;48.810;9.120;2023-05-10T02:41:55;3.70;;;1.90;;
209;SDS011;90;48.810;9.120;2023-05-10T02:44:23;3.70;;;1.90;;
209;SDS011;90;48.810;9.120;2023-05-10T02:46:56;2.00;;;1.60;;
209;SDS011;90;48.810;9.120;2023-05-10T02:49:23;2.07;;;1.93;;
209;SDS011;90;48.810;9.120;2023-05-10T02:51:51;1.80;;;1.50;;
209;SDS011;90;48.810;9.120;2023-05-10T02:54:27;2.33;;;1.73;;
209;SDS011;90;48.810;9.120;2023-05-10T02:56:58;4.23;;;1.50;;
209;SDS011;90;48.810;9.120;2023-05-10T02:59:26;2.80;;;2.13;;
209;SDS011;90;48.810;9.120;2023-05-10T03:01:53;2.00;;;1.90;;
209;SDS011;90;48.810;9.120;2023-05-10T03:04:19;3.10;;;1.70;;
209;SDS011;90;48.810;9.120;2023-05-10T03:06:46;2.30;;;1.70;;
209;SDS011;90;48.810;9.120;2023-05-10T03:09:13;1.70;;;1.50;;
209;SDS011;90;48.810;9.120;2023-05-10T03:11:46;1.70;;;1.57;;
209;SDS011;90;48.810;9.120;2023-05-10T03:14:21;1.90;;;1.57;;
209;SDS011;90;48.810;9.120;2023-05-10T03:16:56;2.57;;;1.60;;
209;SDS011;90;48.810;9.120;2023-05-10T03:19:27;1.90;;;1.90;;
209;SDS011;90;48.810;9.120;2023-05-10T03:21:59;2.27;;;2.07;;
209;SDS011;90;48.810;9.120;2023-05-10T03:24:29;2.27;;;2.07;;
209;SDS011;90;48.810;9.120;2023-05-10T03:26:58;4.17;;;2.13;;
209;SDS011;90;48.810;9.120;2023-05-10T03:29:27;2.23;;;2.03;;
209;SDS011;90;48.810;9.120;2023-05-10T03:31:55;2.53;;;1.97;;
209;SDS011;90;48.810;9.120;2023-05-10T03:34:24;2.27;;;2.07;;
209;SDS011;90;48.810;9.120;2023-05-10T03:36:50;3.47;;;2.00;;
209;SDS011;90;48.810;9.120;2023-05-10T03:39:17;2.07;;;1.93;;
209;SDS011;90;48.810;9.120;2023-05-10T03:41:44;3.30;;;2.70;;
209;SDS011;90;48.810;9.120;2023-05-10T03:44:12;2.53;;;2.40;;
209;SDS011;90;48.810;9.120;2023-05-10T03:46:39;2.60;;;2.40;;
209;SDS011;90;48.810;9.120;2023-05-10T03:49:05;3.77;;;2.10;;
209;SDS011;90;48.810;9.120;2023-05-10T03:51:32;4.37;;;2.57;;
209;SDS011;90;48.810;9.120;2023-05-10T03:53:59;3.23;;;2.60;;
209;SDS011;90;48.810;9.120;2023-05-10T03:56:26;3.50;;;2.37;;
209;SDS011;90;48.810;9.120;2023-05-10T03:58:52;2.70;;;2.10;;
209;SDS011;90;48.810;9.120;2023-05-10T04:01:20;2.43;;;2.23;;
209;SDS011;90;48.810;9.120;2023-05-10T04:03:47;2.37;;;2.13;;
209;SDS011;90;48.810;9.120;2023-05-10T04:06:14;4.37;;;2.50;;
209;SDS011;90;48.810;9.120;2023-05-10T04:08:40;3.80;;;3.60;;
209;SDS011;90;48.810;9.120;2023-05-10T04:11:07;3.60;;;2.90;;
209;SDS011;90;48.810;9.120;2023-05-10T04:13:35;6.70;;;2.90;;
209;SDS011;90;48.810;9.120;2023-05-10T04:16:02;4.03;;;2.40;;
209;SDS011;90;48.810;9.120;2023-05-10T04:18:30;3.60;;;2.43;;
209;SDS011;90;48.810;9.120;2023-05-10T04:20:57;3.23;;;2.20;;
209;SDS011;90;48.810;9.120;2023-05-10T04:23:23;2.80;;;2.57;;
209;SDS011;90;48.810;9.120;2023-05-10T04:25:50;3.63;;;2.30;;
209;SDS011;90;48.810;9.120;2023-05-10T04:28:17;2.67;;;2.47;;
209;SDS011;90;48.810;9.120;2023-05-10T04:30:44;2.60;;;2.30;;
209;SDS011;90;48.810;9.120;2023-05-10T04:33:11;2.53;;;2.33;;
209;SDS011;90;48.810;9.120;2023-05-10T04:35:39;3.30;;;2.40;;
209;SDS011;90;48.810;9.120;2023-05-10T04:38:05;3.50;;;2.47;;
209;SDS011;90;48.810;9.120;2023-05-10T04:40:32;2.70;;;2.50;;
209;SDS011;90;48.810;9.120;2023-05-10T04:42:59;2.70;;;2.50;;
209;SDS011;90;48.810;9.120;2023-05-10T04:45:26;2.80;;;2.60;;
209;SDS011;90;48.810;9.120;2023-05-10T04:47:58;2.77;;;2.43;;
209;SDS011;90;48.810;9.120;2023-05-10T04:50:25;3.07;;;2.87;;
209;SDS011;90;48.810;9.120;2023-05-10T04:52:53;3.10;;;2.90;;
209;SDS011;90;48.810;9.120;2023-05-10T04:55:20;2.60;;;2.40;;
209;SDS011;90;48.810;9.120;2023-05-10T04:57:47;2.40;;;2.20;;
209;SDS011;90;48.810;9.120;2023-05-10T05:00:14;3.17;;;2.40;;
209;SDS011;90;48.810;9.120;2023-05-10T05:02:43;3.20;;;3.00;;
209;SDS011;90;48.810;9.120;2023-05-10T05:05:11;3.60;;;3.13;;
209;SDS011;90;48.810;9.120;2023-05-10T05:07:38;9.73;;;2.60;;
209;SDS011;90;48.810;9.120;2023-05-10T05:10:06;3.17;;;2.40;;
209;SDS011;90;48.810;9.120;2023-05-10T05:12:34;2.70;;;2.50;;
209;SDS011;90;48.810;9.120;2023-05-10T05:15:01;2.20;;;2.00;;
209;SDS011;90;48.810;9.120;2023-05-10T05:17:29;5.13;;;2.70;;
209;SDS011;90;48.810;9.120;2023-05-10T05:19:56;2.40;;;2.25;;
209;SDS011;90;48.810;9.120;2023-05-10T05:22:23;5.40;;;2.60;;
209;SDS011;90;48.810;9.120;2023-05-10T05:24:52;8.37;;;2.80;;
209;SDS011;90;48.810;9.120;2023-05-10T05:27:20;2.70;;;2.50;;
209;SDS011;90;48.810;9.120;2023-05-10T05:29:49;2.50;;;2.30;;
209;SDS011;90;48.810;9.120;2023-05-10T05:32:16;2.97;;;2.77;;
209;SDS011;90;48.810;9.120;2023-05-10T05:34:43;3.40;;;3.20;;
209;SDS011;90;48.810;9.120;2023-05-10T05:37:12;3.83;;;2.97;;
209;SDS011;90;48.810;9.120;2023-05-10T05:39:39;3.13;;;2.93;;
209;SDS011;90;48.810;9.120;2023-05-10T05:42:06;3.33;;;2.40;;
209;SDS011;90;48.810;9.120;2023-05-10T05:44:34;2.83;;;2.63;;
209;SDS011;90;48.810;9.120;2023-05-10T05:47:00;2.83;;;2.47;;
209;SDS011;90;48.810;9.120;2023-05-10T05:49:27;4.60;;;3.10;;
209;SDS011;90;48.810;9.120;2023-05-10T05:51:54;4.20;;;2.37;;
209;SDS011;90;48.810;9.120;2023-05-10T05:54:24;5.70;;;2.70;;
209;SDS011;90;48.810;9.120;2023-05-10T05:56:53;5.37;;;5.07;;
209;SDS011;90;48.810;9.120;2023-05-10T05:59:20;3.97;;;3.77;;
209;SDS011;90;48.810;9.120;2023-05-10T06:01:48;3.30;;;3.10;;
209;SDS011;90;48.810;9.120;2023-05-10T06:04:16;6.10;;;2.80;;
209;SDS011;90;48.810;9.120;2023-05-10T06:06:42;3.20;;;3.00;;
209;SDS011;90;48.810;9.120;2023-05-10T06:09:09;3.90;;;3.70;;
209;SDS011;90;48.810;9.120;2023-05-10T06:11:37;3.60;;;3.40;;
209;SDS011;90;48.810;9.120;2023-05-10T06:14:04;3.77;;;3.30;;
209;SDS011;90;48.810;9.120;2023-05-10T06:16:32;3.17;;;2.90;;
209;SDS011;90;48.810;9.120;2023-05-10T06:19:00;6.13;;;2.97;;
209;SDS011;90;48.810;9.120;2023-05-10T06:21:27;7.37;;;3.10;;
209;SDS011;90;48.810;9.120;2023-05-10T06:23:54;2.97;;;2.77;;
209;SDS011;90;48.810;9.120;2023-05-10T06:26:20;2.83;;;2.63;;
209;SDS011;90;48.810;9.120;2023-05-10T06:28:47;4.07;;;2.97;;
209;SDS011;90;48.810;9.120;2023-05-10T06:31:14;3.40;;;3.20;;
209;SDS011;90;48.810;9.120;2023-05-10T06:33:41;3.40;;;3.20;;
209;SDS011;90;48.810;9.120;2023-05-10T06:36:09;2.90;;;2.70;;
209;SDS011;90;48.810;9.120;2023-05-10T06:38:36;3.17;;;2.97;;
209;SDS011;90;48.810;9.120;2023-05-10T06:41:02;3.47;;;3.27;;
209;SDS011;90;48.810;9.120;2023-05-10T06:43:29;4.73;;;3.57;;
209;SDS011;90;48.810;9.120;2023-05-10T06:45:56;2.60;;;2.40;;
209;SDS011;90;48.810;9.120;2023-05-10T06:48:23;2.50;;;2.30;;
209;SDS011;90;48.810;9.120;2023-05-10T06:50:49;2.97;;;2.40;;
209;SDS011;90;48.810;9.120;2023-05-10T06:53:17;3.47;;;3.27;;
209;SDS011;90;48.810;9.120;2023-05-10T06:55:44;2.90;;;2.70;;
209;SDS011;90;48.810;9.120;2023-05-10T06:58:11;4.93;;;2.83;;
209;SDS011;90;48.810;9.120;2023-05-10T07:00:38;3.70;;;3.27;;
209;SDS011;90;48.810;9.120;2023-05-10T07:03:05;3.40;;;3.20;;
209;SDS011;90;48.810;9.120;2023-05-10T07:05:32;5.73;;;2.83;;
209;SDS011;90;48.810;9.120;2023-05-10T07:07:58;3.37;;;2.80;;
209;SDS011;90;48.810;9.120;2023-05-10T07:10:27;2.47;;;2.27;;
209;SDS011;90;48.810;9.120;2023-05-10T07:12:54;2.70;;;2.50;;
209;SDS011;90;48.810;9.120;2023-05-10T07:15:20;2.63;;;2.43;;
209;SDS011;90;48.810;9.120;2023-05-10T07:17:47;3.43;;;2.90;;
209;SDS011;90;48.810;9.120;2023-05-10T07:20:14;3.87;;;2.57;;
209;SDS011;90;48.810;9.120;2023-05-10T07:22:41;2.67;;;2.30;;
209;SDS011;90;48.810;9.120;2023-05-10T07:25:08;2.80;;;2.57;;
209;SDS011;90;48.810;9.120;2023-05-10T07:27:37;3.63;;;2.83;;
209;SDS011;90;48.810;9.120;2023-05-10T07:30:04;3.10;;;2.67;;
209;SDS011;90;48.810;9.120;2023-05-10T07:32:31;2.33;;;2.13;;
209;SDS011;90;48.810;9.120;2023-05-10T07:34:58;3.70;;;3.00;;
209;SDS011;90;48.810;9.120;2023-05-10T07:37:25;10.53;;;2.97;;
209;SDS011;90;48.810;9.120;2023-05-10T07:39:51;3.20;;;3.00;;
209;SDS011;90;48.810;9.120;2023-05-10T07:42:18;2.63;;;2.43;;
209;SDS011;90;48.810;9.120;2023-05-10T07:44:46;2.60;;;2.40;;
209;SDS011;90;48.810;9.120;2023-05-10T07:47:13;2.73;;;2.53;;
209;SDS011;90;48.810;9.120;2023-05-10T07:49:39;5.83;;;2.87;;
209;SDS011;90;48.810;9.120;2023-05-10T07:52:06;2.87;;;2.00;;
209;SDS011;90;48.810;9.120;2023-05-10T07:54:33;2.87;;;2.40;;
209;SDS011;90;48.810;9.120;2023-05-10T07:56:59;3.20;;;2.10;;
209;SDS011;90;48.810;9.120;2023-05-10T07:59:26;2.87;;;2.67;;
209;SDS011;90;48.810;9.120;2023-05-10T08:01:54;2.73;;;2.53;;
209;SDS011;90;48.810;9.120;2023-05-10T08:04:21;2.77;;;2.57;;
209;SDS011;90;48.810;9.120;2023-05-10T08:06:48;8.43;;;2.70;;
209;SDS011;90;48.810;9.120;2023-05-10T08:09:14;2.93;;;2.73;;
209;SDS011;90;48.810;9.120;2023-05-10T08:11:42;3.03;;;2.83;;
209;SDS011;90;48.810;9.120;2023-05-10T08:14:09;5.13;;;2.83;;
209;SDS011;90;48.810;9.120;2023-05-10T08:16:36;2.13;;;2.00;;
209;SDS011;90;48.810;9.120;2023-05-10T08:19:04;2.10;;;2.00;;
209;SDS011;90;48.810;9.120;2023-05-10T08:21:31;2.13;;;2.00;;
209;SDS011;90;48.810;9.120;2023-05-10T08:23:58;2.30;;;1.80;;
209;SDS011;90;48.810;9.120;2023-05-10T08:26:25;2.20;;;2.00;;
209;SDS011;90;48.810;9.120;2023-05-10T08:28:51;5.30;;;2.27;;
209;SDS011;90;48.810;9.120;2023-05-10T08:31:18;1.90;;;1.73;;
209;SDS011;90;48.810;9.120;2023-05-10T08:33:45;3.30;;;1.80;;
209;SDS011;90;48.810;9.120;2023-05-10T08:36:13;5.00;;;1.87;;
209;SDS011;90;48.810;9.120;2023-05-10T08:38:44;2.00;;;1.83;;
209;SDS011;90;48.810;9.120;2023-05-10T08:41:11;1.80;;;1.60;;
209;SDS011;90;48.810;9.120;2023-05-10T08:43:38;2.20;;;2.00;;
209;SDS011;90;48.810;9.120;2023-05-10T08:46:06;2.60;;;2.07;;
209;SDS011;90;48.810;9.120;2023-05-10T08:48:35;2.30;;;1.80;;
209;SDS011;90;48.810;9.120;2023-05-10T08:51:03;3.30;;;2.13;;
209;SDS011;90;48.810;9.120;2023-05-10T08:53:32;2.97;;;1.67;;
209;SDS011;90;48.810;9.120;2023-05-10T08:56:01;2.90;;;2.47;;
209;SDS011;90;48.810;9.120;2023-05-10T08:58:28;2.90;;;2.70;;
209;SDS011;90;48.810;9.120;2023-05-10T09:00:55;3.00;;;2.07;;
209;SDS011;90;48.810;9.120;2023-05-10T09:03:23;2.23;;;2.03;;
209;SDS011;90;48.810;9.120;2023-05-10T09:05:50;2.30;;;2.10;;
209;SDS011;90;48.810;9.120;2023-05-10T09:08:18;2.83;;;1.80;;
209;SDS011;90;48.810;9.120;2023-05-10T09:10:48;2.33;;;2.17;;
209;SDS011;90;48.810;9.120;2023-05-10T09:13:14;2.40;;;2.20;;
209;SDS011;90;48.810;9.120;2023-05-10T09:15:43;2.00;;;1.90;;
209;SDS011;90;48.810;9.120;2023-05-10T09:18:11;3.07;;;2.63;;
209;SDS011;90;48.810;9.120;2023-05-10T09:20:38;2.63;;;2.10;;
209;SDS011;90;48.810;9.120;2023-05-10T09:23:05;3.23;;;2.00;;
209;SDS011;90;48.810;9.120;2023-05-10T09:25:33;3.13;;;2.40;;
209;SDS011;90;48.810;9.120;2023-05-10T09:28:07;1.90;;;1.73;;
209;SDS011;90;48.810;9.120;2023-05-10T09:30:34;2.67;;;2.47;;
209;SDS011;90;48.810;9.120;2023-05-10T09:33:01;2.10;;;1.90;;
209;SDS011;90;48.810;9.120;2023-05-10T09:35:29;2.90;;;2.40;;
209;SDS011;90;48.810;9.120;2023-05-10T09:38:03;3.70;;;2.40;;
209;SDS011;90;48.810;9.120;2023-05-10T09:40:31;2.40;;;2.20;;
209;SDS011;90;48.810;9.120;2023-05-10T09:42:59;2.33;;;2.17;;
209;SDS011;90;48.810;9.120;2023-05-10T09:45:28;5.27;;;2.20;;
209;SDS011;90;48.810;9.120;2023-05-10T09:47:56;3.50;;;1.87;;
209;SDS011;90;48.810;9.120;2023-05-10T09:50:25;2.00;;;1.90;;
209;SDS011;90;48.810;9.120;2023-05-10T09:52:54;1.80;;;1.60;;
209;SDS011;90;48.810;9.120;2023-05-10T09:55:24;3.77;;;2.10;;
209;SDS011;90;48.810;9.120;2023-05-10T09:57:58;2.23;;;1.93;;
209;SDS011;90;48.810;9.120;2023-05-10T10:00:28;2.20;;;2.00;;
209;SDS011;90;48.810;9.120;2023-05-10T10:03:00;2.20;;;1.93;;
209;SDS011;90;48.810;9.120;2023-05-10T10:05:30;2.30;;;1.83;;
209;SDS011;90;48.810;9.120;2023-05-10T10:07:57;4.13;;;1.80;;
209;SDS011;90;48.810;9.120;2023-05-10T10:10:25;2.50;;;2.40;;
209;SDS011;90;48.810;9.120;2023-05-10T10:12:52;2.27;;;2.07;;
209;SDS011;90;48.810;9.120;2023-05-10T10:15:18;2.50;;;2.30;;
209;SDS011;90;48.810;9.120;2023-05-10T10:17:48;2.30;;;2.10;;
209;SDS011;90;48.810;9.120;2023-05-10T10:20:15;4.67;;;1.90;;
209;SDS011;90;48.810;9.120;2023-05-10T10:22:42;2.97;;;2.70;;
209;SDS011;90;48.810;9.120;2023-05-10T10:25:10;4.83;;;2.13;;
209;SDS011;90;48.810;9.120;2023-05-10T10:27:42;2.50;;;2.03;;
209;SDS011;90;48.810;9.120;2023-05-10T10:30:18;2.50;;;2.30;;
209;SDS011;90;48.810;9.120;2023-05-10T10:32:59;3.07;;;2.87;;
209;SDS011;90;48.810;9.120;2023-05-10T10:35:35;3.90;;;1.70;;
209;SDS011;90;48.810;9.120;2023-05-10T10:38:02;2.20;;;2.00;;
209;SDS011;90;48.810;9.120;2023-05-10T10:40:29;2.80;;;2.43;;
209;SDS011;90;48.810;9.120;2023-05-10T10:42:57;1.90;;;1.83;;
209;SDS011;90;48.810;9.120;2023-05-10T10:45:47;2.90;;;2.70;;
209;SDS011;90;48.810;9.120;2023-05-10T10:48:37;2.90;;;2.70;;
209;SDS011;90;48.810;9.120;2023-05-10T10:51:04;2.37;;;2.00;;
209;SDS011;90;48.810;9.120;2023-05-10T10:53:31;2.40;;;2.20;;
209;SDS011;90;48.810;9.120;2023-05-10T10:56:05;2.50;;;2.30;;
209;SDS011;90;48.810;9.120;2023-05-10T10:58:34;1.87;;;1.83;;
209;SDS011;90;48.810;9.120;2023-05-10T11:01:10;4.13;;;2.00;;
209;SDS011;90;48.810;9.120;2023-05-10T11:03:39;2.37;;;2.07;;
209;SDS011;90;48.810;9.120;2023-05-10T11:06:07;2.40;;;2.20;;
209;SDS011;90;48.810;9.120;2023-05-10T11:08:34;3.07;;;2.03;;
209;SDS011;90;48.810;9.120;2023-05-10T11:11:08;2.53;;;1.90;;
209;SDS011;90;48.810;9.120;2023-05-10T11:13:39;1.90;;;1.90;;
209;SDS011;90;48.810;9.120;2023-05-10T11:16:14;23.67;;;2.23;;
209;SDS011;90;48.810;9.120;2023-05-10T11:18:54;2.00;;;1.70;;
209;SDS011;90;48.810;9.120;2023-05-10T11:21:26;2.00;;;1.90;;
209;SDS011;90;48.810;9.120;2023-05-10T11:23:53;1.90;;;1.80;;
209;SDS011;90;48.810;9.120;2023-05-10T11:26:25;2.10;;;1.87;;
209;SDS011;90;48.810;9.120;2023-05-10T11:28:56;2.50;;;1.90;;
209;SDS011;90;48.810;9.120;2023-05-10T11:31:24;4.17;;;2.20;;
209;SDS011;90;48.810;9.120;2023-05-10T11:33:52;5.13;;;2.60;;
209;SDS011;90;48.810;9.120;2023-05-10T11:36:21;2.20;;;2.00;;
209;SDS011;90;48.810;9.120;2023-05-10T11:38:50;2.43;;;2.10;;
209;SDS011;90;48.810;9.120;2023-05-10T11:41:18;2.83;;;2.20;;
209;SDS011;90;48.810;9.120;2023-05-10T11:43:47;2.47;;;2.20;;
209;SDS011;90;48.810;9.120;2023-05-10T11:46:15;2.30;;;2.07;;
209;SDS011;90;48.810;9.120;2023-05-10T11:48:45;2.30;;;2.10;;
209;SDS011;90;48.810;9.120;2023-05-10T11:51:14;2.47;;;2.33;;
209;SDS011;90;48.810;9.120;2023-05-10T11:53:40;2.93;;;2.33;;
209;SDS011;90;48.810;9.120;2023-05-10T11:56:07;2.50;;;2.30;;
209;SDS011;90;48.810;9.120;2023-05-10T11:58:35;3.03;;;2.83;;
209;SDS011;90;48.810;9.120;2023-05-10T12:01:03;5.73;;;2.90;;
209;SDS011;90;48.810;9.120;2023-05-10T12:03:30;4.10;;;2.70;;
209;SDS011;90;48.810;9.120;2023-05-10T12:05:58;3.20;;;2.87;;
209;SDS011;90;48.810;9.120;2023-05-10T12:08:27;3.70;;;2.63;;
209;SDS011;90;48.810;9.120;2023-05-10T12:11:03;2.40;;;1.93;;
209;SDS011;90;48.810;9.120;2023-05-10T12:13:31;2.70;;;2.50;;
209;SDS011;90;48.810;9.120;2023-05-10T12:15:58;2.53;;;2.40;;
209;SDS011;90;48.810;9.120;2023-05-10T12:18:25;2.80;;;2.60;;
209;SDS011;90;48.810;9.120;2023-05-10T12:20:52;2.90;;;2.70;;
209;SDS011;90;48.810;9.120;2023-05-10T12:23:19;3.17;;;2.70;;
209;SDS011;90;48.810;9.120;2023-05-10T12:25:47;2.60;;;2.40;;
209;SDS011;90;48.810;9.120;2023-05-10T12:28:14;4.27;;;2.87;;
209;SDS011;90;48.810;9.120;2023-05-10T12:30:45;4.20;;;2.70;;
209;SDS011;90;48.810;9.120;2023-05-10T12:33:12;2.93;;;2.23;;
209;SDS011;90;48.810;9.120;2023-05-10T12:35:45;2.90;;;2.70;;
209;SDS011;90;48.810;9.120;2023-05-10T12:38:26;4.23;;;2.73;;
209;SDS011;90;48.810;9.120;2023-05-10T12:40:56;4.17;;;3.93;;
209;SDS011;90;48.810;9.120;2023-05-10T12:43:24;8.33;;;2.90;;
209;SDS011;90;48.810;9.120;2023-05-10T12:45:51;2.53;;;2.30;;
209;SDS011;90;48.810;9.120;2023-05-10T12:48:17;2.57;;;2.37;;
209;SDS011;90;48.810;9.120;2023-05-10T12:50:44;2.60;;;2.40;;
209;SDS011;90;48.810;9.120;2023-05-10T12:53:13;4.60;;;3.10;;
209;SDS011;90;48.810;9.120;2023-05-10T12:55:40;2.27;;;2.17;;
209;SDS011;90;48.810;9.120;2023-05-10T12:58:08;2.30;;;2.20;;
209;SDS011;90;48.810;9.120;2023-05-10T13:00:35;2.90;;;2.70;;
209;SDS011;90;48.810;9.120;2023-05-10T13:03:03;3.50;;;3.30;;
209;SDS011;90;48.810;9.120;2023-05-10T13:05:30;5.00;;;2.40;;
209;SDS011;90;48.810;9.120;2023-05-10T13:07:57;5.70;;;2.37;;
209;SDS011;90;48.810;9.120;2023-05-10T13:10:23;2.70;;;2.50;;
209;SDS011;90;48.810;9.120;2023-05-10T13:12:50;3.07;;;2.90;;
209;SDS011;90;48.810;9.120;2023-05-10T13:15:18;3.07;;;2.73;;
209;SDS011;90;48.810;9.120;2023-05-10T13:17:45;2.67;;;2.47;;
209;SDS011;90;48.810;9.120;2023-05-10T13:20:11;3.13;;;2.40;;
209;SDS011;90;48.810;9.120;2023-05-10T13:22:38;3.07;;;2.30;;
209;SDS011;90;48.810;9.120;2023-05-10T13:25:05;4.90;;;3.03;;
209;SDS011;90;48.810;9.120;2023-05-10T13:27:32;3.23;;;3.00;;
209;SDS011;90;48.810;9.120;2023-05-10T13:29:58;2.60;;;2.40;;
209;SDS011;90;48.810;9.120;2023-05-10T13:32:26;4.40;;;2.20;;
209;SDS011;90;48.810;9.120;2023-05-10T13:34:53;4.30;;;2.43;;
209;SDS011;90;48.810;9.120;2023-05-10T13:37:20;2.60;;;2.40;;
209;SDS011;90;48.810;9.120;2023-05-10T13:39:47;6.23;;;2.97;;
209;SDS011;90;48.810;9.120;2023-05-10T13:42:14;2.70;;;2.50;;
209;SDS011;90;48.810;9.120;2023-05-10T13:44:40;2.63;;;2.43;;
209;SDS011;90;48.810;9.120;2023-05-10T13:47:07;3.07;;;2.50;;
209;SDS011;90;48.810;9.120;2023-05-10T13:49:36;3.90;;;2.97;;
209;SDS011;90;48.810;9.120;2023-05-10T13:52:03;3.10;;;2.90;;
209;SDS011;90;48.810;9.120;2023-05-10T13:54:31;2.87;;;2.67;;
209;SDS011;90;48.810;9.120;2023-05-10T13:56:58;5.50;;;2.50;;
209;SDS011;90;48.810;9.120;2023-05-10T13:59:25;3.80;;;2.20;;
209;SDS011;90;48.810;9.120;2023-05-10T14:01:52;2.70;;;2.50;;
209;SDS011;90;48.810;9.120;2023-05-10T14:04:19;3.97;;;3.77;;
209;SDS011;90;48.810;9.120;2023-05-10T14:06:47;3.10;;;2.90;;
209;SDS011;90;48.810;9.120;2023-05-10T14:09:13;3.03;;;2.63;;
209;SDS011;90;48.810;9.120;2023-05-10T14:11:40;2.83;;;2.63;;
209;SDS011;90;48.810;9.120;2023-05-10T14:14:08;3.33;;;2.80;;
209;SDS011;90;48.810;9.120;2023-05-10T14:16:35;3.00;;;2.80;;
209;SDS011;90;48.810;9.120;2023-05-10T14:19:01;4.57;;;3.00;;
209;SDS011;90;48.810;9.120;2023-05-10T14:21:28;2.57;;;2.40;;
209;SDS011;90;48.810;9.120;2023-05-10T14:23:57;1.90;;;1.77;;
209;SDS011;90;48.810;9.120;2023-05-10T14:26:23;2.93;;;2.30;;
209;SDS011;90;48.810;9.120;2023-05-10T14:28:54;2.77;;;2.60;;
209;SDS011;90;48.810;9.120;2023-05-10T14:31:24;2.67;;;2.40;;
209;SDS011;90;48.810;9.120;2023-05-10T14:33:51;3.80;;;2.80;;
209;SDS011;90;48.810;9.120;2023-05-10T14:36:18;3.10;;;2.90;;
209;SDS011;90;48.810;9.120;2023-05-10T14:38:45;2.93;;;2.43;;
209;SDS011;90;48.810;9.120;2023-05-10T14:41:13;3.03;;;2.87;;
209;SDS011;90;48.810;9.120;2023-05-10T14:43:40;4.43;;;2.70;;
209;SDS011;90;48.810;9.120;2023-05-10T14:46:09;4.30;;;2.40;;
209;SDS011;90;48.810;9.120;2023-05-10T14:48:36;4.27;;;2.90;;
209;SDS011;90;48.810;9.120;2023-05-10T14:51:03;3.00;;;2.80;;
209;SDS011;90;48.810;9.120;2023-05-10T14:53:29;3.43;;;2.80;;
209;SDS011;90;48.810;9.120;2023-05-10T14:55:56;4.57;;;3.10;;
209;SDS011;90;48.810;9.120;2023-05-10T14:58:26;3.70;;;2.40;;
209;SDS011;90;48.810;9.120;2023-05-10T15:00:53;2.53;;;2.40;;
209;SDS011;90;48.810;9.120;2023-05-10T15:03:20;4.50;;;2.70;;
209;SDS011;90;48.810;9.120;2023-05-10T15:05:47;2.67;;;2.47;;
209;SDS011;90;48.810;9.120;2023-05-10T15:08:14;6.33;;;2.60;;
209;SDS011;90;48.810;9.120;2023-05-10T15:10:41;3.80;;;2.73;;
209;SDS011;90;48.810;9.120;2023-05-10T15:13:07;4.33;;;2.67;;
209;SDS011;90;48.810;9.120;2023-05-10T15:15:36;2.97;;;2.80;;
209;SDS011;90;48.810;9.120;2023-05-10T15:18:02;3.10;;;2.90;;
209;SDS011;90;48.810;9.120;2023-05-10T15:20:30;3.40;;;3.20;;
209;SDS011;90;48.810;9.120;2023-05-10T15:22:57;13.07;;;3.20;;
209;SDS011;90;48.810;9.120;2023-05-10T15:25:23;2.83;;;2.57;;
209;SDS011;90;48.810;9.120;2023-05-10T15:27:53;3.90;;;2.83;;
209;SDS011;90;48.810;9.120;2023-05-10T15:30:20;3.83;;;2.40;;
209;SDS011;90;48.810;9.120;2023-05-10T15:32:48;3.47;;;2.90;;
209;SDS011;90;48.810;9.120;2023-05-10T15:35:15;3.77;;;3.20;;
209;SDS011;90;48.810;9.120;2023-05-10T15:37:42;2.97;;;2.10;;
209;SDS011;90;48.810;9.120;2023-05-10T15:40:09;3.13;;;2.60;;
209;SDS011;90;48.810;9.120;2023-05-10T15:42:36;2.70;;;2.60;;
209;SDS011;90;48.810;9.120;2023-05-10T15:45:03;3.80;;;2.83;;
209;SDS011;90;48.810;9.120;2023-05-10T15:47:31;6.07;;;2.90;;
209;SDS011;90;48.810;9.120;2023-05-10T15:49:59;2.50;;;2.33;;
209;SDS011;90;48.810;9.120;2023-05-10T15:52:26;2.63;;;2.40;;
209;SDS011;90;48.810;9.120;2023-05-10T15:54:52;2.70;;;2.10;;
209;SDS011;90;48.810;9.120;2023-05-10T15:57:19;3.80;;;2.40;;
209;SDS011;90;48.810;9.120;2023-05-10T15:59:46;2.80;;;2.60;;
209;SDS011;90;48.810;9.120;2023-05-10T16:02:13;2.60;;;2.40;;
209;SDS011;90;48.810;9.120;2023-05-10T16:04:39;4.20;;;2.60;;
209;SDS011;90;48.810;9.120;2023-05-10T16:07:08;2.20;;;2.00;;
209;SDS011;90;48.810;9.120;2023-05-10T16:09:34;3.00;;;2.80;;
209;SDS011;90;48.810;9.120;2023-05-10T16:12:01;3.17;;;2.30;;